createdAt,value
2019-05-13T00:00:44.414Z,7.05
2019-05-13T00:03:13.598Z,8.30
2019-05-13T00:05:41.610Z,6.20
2019-05-13T00:08:10.761Z,6.90
2019-05-13T00:10:40.472Z,7.05
2019-05-13T00:13:08.667Z,6.08
2019-05-13T00:15:36.899Z,8.33
2019-05-13T00:18:04.995Z,6.73
2019-05-13T00:20:33.839Z,7.25
2019-05-13T00:23:03.988Z,7.90
2019-05-13T00:25:33.832Z,8.68
2019-05-13T00:28:04.153Z,9.13
2019-05-13T00:30:34.047Z,8.35
2019-05-13T00:33:03.849Z,7.53
2019-05-13T00:35:33.932Z,7.73
2019-05-13T00:38:03.968Z,6.53
2019-05-13T00:40:33.743Z,6.95
2019-05-13T00:43:03.525Z,6.83
2019-05-13T00:45:33.596Z,7.92
2019-05-13T00:48:01.222Z,6.42
2019-05-13T00:50:29.296Z,7.53
2019-05-13T00:52:58.063Z,7.72
2019-05-13T00:55:26.200Z,7.35
2019-05-13T00:57:54.376Z,7.33
2019-05-13T01:00:24.357Z,8.58
2019-05-13T01:02:53.339Z,9.45
2019-05-13T01:05:23.413Z,8.48
2019-05-13T01:07:53.557Z,7.10
2019-05-13T01:10:21.128Z,9.03
2019-05-13T01:12:49.236Z,9.28
2019-05-13T01:15:17.399Z,6.80
2019-05-13T01:17:45.578Z,8.80
2019-05-13T01:20:14.552Z,4.95
2019-05-13T01:22:44.100Z,8.40
2019-05-13T01:25:14.539Z,8.25
2019-05-13T01:27:44.148Z,7.75
2019-05-13T01:30:13.366Z,8.18
2019-05-13T01:32:44.495Z,6.73
2019-05-13T01:35:11.865Z,7.28
2019-05-13T01:37:43.414Z,7.55
2019-05-13T01:40:13.422Z,8.03
2019-05-13T01:42:41.075Z,8.65
2019-05-13T01:45:09.599Z,6.35
2019-05-13T01:47:37.709Z,6.80
2019-05-13T01:50:08.697Z,8.00
2019-05-13T01:52:36.844Z,9.55
2019-05-13T01:55:06.234Z,7.80
2019-05-13T01:57:34.423Z,7.03
2019-05-13T02:00:04.683Z,5.95
2019-05-13T02:02:34.068Z,5.75
2019-05-13T02:05:03.964Z,7.45
2019-05-13T02:07:33.585Z,7.05
2019-05-13T02:10:04.370Z,7.78
2019-05-13T02:12:33.989Z,6.07
2019-05-13T02:15:04.394Z,5.72
2019-05-13T02:17:33.759Z,9.13
2019-05-13T02:20:03.899Z,5.72
2019-05-13T02:22:33.668Z,7.78
2019-05-13T02:25:04.433Z,7.03
2019-05-13T02:27:32.016Z,6.83
2019-05-13T02:30:00.112Z,6.92
2019-05-13T02:32:28.234Z,5.55
2019-05-13T02:34:56.370Z,8.03
2019-05-13T02:37:26.934Z,6.70
2019-05-13T02:39:54.271Z,7.83
2019-05-13T02:42:22.981Z,6.25
2019-05-13T02:44:52.964Z,7.55
2019-05-13T02:47:22.567Z,7.72
2019-05-13T02:49:53.400Z,7.12
2019-05-13T02:52:22.415Z,5.47
2019-05-13T02:54:52.764Z,5.35
2019-05-13T02:57:23.354Z,7.75
2019-05-13T02:59:52.624Z,7.35
2019-05-13T03:02:22.370Z,7.35
2019-05-13T03:04:52.346Z,7.17
2019-05-13T03:07:23.022Z,7.90
2019-05-13T03:09:52.511Z,7.20
2019-05-13T03:12:19.100Z,7.90
2019-05-13T03:14:48.567Z,6.58
2019-05-13T03:17:27.773Z,8.48
2019-05-13T03:19:55.984Z,6.75
2019-05-13T03:22:24.203Z,5.45
2019-05-13T03:24:52.622Z,5.78
2019-05-13T03:27:24.944Z,5.72
2019-05-13T03:29:53.331Z,7.12
2019-05-13T03:32:26.006Z,5.50
2019-05-13T03:34:54.876Z,7.33
2019-05-13T03:37:25.403Z,7.92
2019-05-13T03:39:52.315Z,8.05
2019-05-13T03:42:22.485Z,6.10
2019-05-13T03:44:52.642Z,6.95
2019-05-13T03:47:23.245Z,6.85
2019-05-13T03:49:53.316Z,7.70
2019-05-13T03:52:22.509Z,7.30
2019-05-13T03:54:52.035Z,6.85
2019-05-13T03:57:23.260Z,6.25
2019-05-13T03:59:52.546Z,6.95
2019-05-13T04:02:22.668Z,6.28
2019-05-13T04:04:52.849Z,5.87
2019-05-13T04:07:23.527Z,10.28
2019-05-13T04:09:52.349Z,8.57
2019-05-13T04:12:22.580Z,9.15
2019-05-13T04:14:52.654Z,6.75
2019-05-13T04:17:19.349Z,7.08
2019-05-13T04:19:47.471Z,6.45
2019-05-13T04:22:15.655Z,8.03
2019-05-13T04:24:43.812Z,7.15
2019-05-13T04:27:13.287Z,5.25
2019-05-13T04:29:43.208Z,6.20
2019-05-13T04:32:12.848Z,5.70
2019-05-13T04:34:42.416Z,6.60
2019-05-13T04:37:13.253Z,7.77
2019-05-13T04:39:49.971Z,5.17
2019-05-13T04:42:12.405Z,8.45
2019-05-13T04:44:42.794Z,10.32
2019-05-13T04:47:12.801Z,7.67
2019-05-13T04:49:42.828Z,8.68
2019-05-13T04:52:13.406Z,7.92
2019-05-13T04:54:43.661Z,8.50
2019-05-13T04:57:12.355Z,10.20
2019-05-13T04:59:44.545Z,8.65
2019-05-13T05:02:16.413Z,8.78
2019-05-13T05:05:02.973Z,8.70
2019-05-13T05:07:52.326Z,8.45
2019-05-13T05:10:38.873Z,8.45
2019-05-13T05:13:12.633Z,10.80
2019-05-13T05:15:44.233Z,10.88
2019-05-13T05:18:23.050Z,11.23
2019-05-13T05:20:52.691Z,11.37
2019-05-13T05:23:22.311Z,10.30
2019-05-13T05:25:54.637Z,11.22
2019-05-13T05:28:24.264Z,12.67
2019-05-13T05:30:53.974Z,10.85
2019-05-13T05:33:35.915Z,11.12
2019-05-13T05:36:14.475Z,11.12
2019-05-13T05:38:56.461Z,9.73
2019-05-13T05:41:26.106Z,8.50
2019-05-13T05:43:55.817Z,11.43
2019-05-13T05:46:24.663Z,8.28
2019-05-13T05:48:53.568Z,8.48
2019-05-13T05:51:22.232Z,9.88
2019-05-13T05:53:51.754Z,7.33
2019-05-13T05:56:22.015Z,11.45
2019-05-13T05:58:52.343Z,8.60
2019-05-13T06:01:23.314Z,10.77
2019-05-13T06:03:52.978Z,10.80
2019-05-13T06:06:22.749Z,10.35
2019-05-13T06:08:51.707Z,8.93
2019-05-13T06:11:22.144Z,10.65
2019-05-13T06:13:54.441Z,9.88
2019-05-13T06:16:22.336Z,8.15
2019-05-13T06:18:52.278Z,11.50
2019-05-13T06:21:21.462Z,7.80
2019-05-13T06:23:51.823Z,11.15
2019-05-13T06:26:23.379Z,9.70
2019-05-13T06:28:51.989Z,7.10
2019-05-13T06:31:21.537Z,8.23
2019-05-13T06:33:51.457Z,11.25
2019-05-13T06:36:21.944Z,9.73
2019-05-13T06:38:51.361Z,12.00
2019-05-13T06:41:19.094Z,10.25
2019-05-13T06:43:47.222Z,9.45
2019-05-13T06:46:15.427Z,7.92
2019-05-13T06:48:44.368Z,8.60
2019-05-13T06:51:12.454Z,10.37
2019-05-13T06:53:41.462Z,7.15
2019-05-13T06:56:11.970Z,7.92
2019-05-13T06:58:41.523Z,7.08
2019-05-13T07:01:11.565Z,7.05
2019-05-13T07:03:41.839Z,9.55
2019-05-13T07:06:09.154Z,7.15
2019-05-13T07:08:37.248Z,7.75
2019-05-13T07:11:17.719Z,6.53
2019-05-13T07:13:35.283Z,5.20
2019-05-13T07:16:03.383Z,5.17
2019-05-13T07:18:32.316Z,4.80
2019-05-13T07:21:02.241Z,5.78
2019-05-13T07:23:31.825Z,4.97
2019-05-13T07:26:01.674Z,5.25
2019-05-13T07:28:32.261Z,5.97
2019-05-13T07:31:02.139Z,3.50
2019-05-13T07:33:32.020Z,4.25
2019-05-13T07:36:02.771Z,3.40
2019-05-13T07:38:32.226Z,3.90
2019-05-13T07:41:04.464Z,5.30
2019-05-13T07:43:32.661Z,3.83
2019-05-13T07:46:02.120Z,3.60
2019-05-13T07:48:32.057Z,5.05
2019-05-13T07:51:04.018Z,4.47
2019-05-13T07:53:32.197Z,3.60
2019-05-13T07:56:01.960Z,6.13
2019-05-13T07:58:34.380Z,4.17
2019-05-13T08:01:02.386Z,5.45
2019-05-13T08:03:31.713Z,4.25
2019-05-13T08:06:01.992Z,4.53
2019-05-13T08:08:32.189Z,5.03
2019-05-13T08:11:01.235Z,4.33
2019-05-13T08:13:31.480Z,3.90
2019-05-13T08:16:01.994Z,4.00
2019-05-13T08:18:32.050Z,3.98
2019-05-13T08:21:02.106Z,4.08
2019-05-13T08:23:32.391Z,4.90
2019-05-13T08:26:02.220Z,5.47
2019-05-13T08:28:32.258Z,4.20
2019-05-13T08:31:02.017Z,4.95
2019-05-13T08:33:32.079Z,3.80
2019-05-13T08:36:01.690Z,6.23
2019-05-13T08:38:31.876Z,3.12
2019-05-13T08:41:01.910Z,5.00
2019-05-13T08:43:31.669Z,5.50
2019-05-13T08:46:02.008Z,5.12
2019-05-13T08:48:32.365Z,5.03
2019-05-13T08:51:02.729Z,4.62
2019-05-13T08:53:31.630Z,4.62
2019-05-13T08:56:01.675Z,6.00
2019-05-13T08:58:32.060Z,4.60
2019-05-13T09:01:02.246Z,4.58
2019-05-13T09:03:32.568Z,4.58
2019-05-13T09:06:02.646Z,4.50
2019-05-13T09:08:32.363Z,4.20
2019-05-13T09:11:01.603Z,4.90
2019-05-13T09:13:29.979Z,4.43
2019-05-13T09:15:58.048Z,4.58
2019-05-13T09:18:26.161Z,5.90
2019-05-13T09:20:54.312Z,5.20
2019-05-13T09:23:22.545Z,4.53
2019-05-13T09:25:52.194Z,3.67
2019-05-13T09:28:21.800Z,4.03
2019-05-13T09:30:52.744Z,5.65
2019-05-13T09:33:21.927Z,3.20
2019-05-13T09:35:52.621Z,5.00
2019-05-13T09:38:22.144Z,6.10
2019-05-13T09:40:49.551Z,5.62
2019-05-13T09:43:17.703Z,5.03
2019-05-13T09:45:46.854Z,3.45
2019-05-13T09:48:15.037Z,5.15
2019-05-13T09:50:43.118Z,5.03
2019-05-13T09:53:11.600Z,4.35
2019-05-13T09:55:41.550Z,4.72
2019-05-13T09:58:11.866Z,3.25
2019-05-13T10:00:42.047Z,3.90
2019-05-13T10:03:09.485Z,4.70
2019-05-13T10:05:37.607Z,4.03
2019-05-13T10:08:06.314Z,5.67
2019-05-13T10:10:34.536Z,5.60
2019-05-13T10:13:12.358Z,4.73
2019-05-13T10:15:34.399Z,5.03
2019-05-13T10:18:02.516Z,5.03
2019-05-13T10:20:42.069Z,4.55
2019-05-13T10:23:12.570Z,4.78
2019-05-13T10:25:43.054Z,4.80
2019-05-13T10:28:13.270Z,5.60
2019-05-13T10:30:43.772Z,6.15
2019-05-13T10:33:12.393Z,5.70
2019-05-13T10:35:42.913Z,4.58
2019-05-13T10:38:13.391Z,4.83
2019-05-13T10:40:43.316Z,5.53
2019-05-13T10:43:27.086Z,5.50
2019-05-13T10:45:41.768Z,5.60
2019-05-13T10:48:11.187Z,5.53
2019-05-13T10:50:41.885Z,4.20
2019-05-13T10:53:12.251Z,5.80
2019-05-13T10:55:39.432Z,5.00
2019-05-13T10:58:07.606Z,4.50
2019-05-13T11:00:37.322Z,6.12
2019-05-13T11:03:05.453Z,5.60
2019-05-13T11:05:33.969Z,5.63
2019-05-13T11:08:02.256Z,4.63
2019-05-13T11:10:32.560Z,4.65
2019-05-13T11:13:01.924Z,5.22
2019-05-13T11:15:32.801Z,5.85
2019-05-13T11:18:02.857Z,3.80
2019-05-13T11:20:32.247Z,4.57
2019-05-13T11:22:59.548Z,4.50
2019-05-13T11:25:27.718Z,3.70
2019-05-13T11:27:58.499Z,5.42
2019-05-13T11:30:25.989Z,5.47
2019-05-13T11:32:54.098Z,3.92
2019-05-13T11:35:22.962Z,5.03
2019-05-13T11:37:52.197Z,4.80
2019-05-13T11:40:22.494Z,5.65
2019-05-13T11:42:52.658Z,5.50
2019-05-13T11:45:22.328Z,4.83
2019-05-13T11:47:52.225Z,4.03
2019-05-13T11:50:22.351Z,4.25
2019-05-13T11:52:52.518Z,4.75
2019-05-13T11:55:22.993Z,5.15
2019-05-13T11:57:52.385Z,5.12
2019-05-13T12:00:21.030Z,4.22
2019-05-13T12:02:54.359Z,4.22
2019-05-13T12:05:22.579Z,5.83
2019-05-13T12:07:53.314Z,4.67
2019-05-13T12:10:19.394Z,4.65
2019-05-13T12:12:47.575Z,5.40
2019-05-13T12:15:28.089Z,4.73
2019-05-13T12:17:45.599Z,5.03
2019-05-13T12:20:13.899Z,5.30
2019-05-13T12:22:42.761Z,3.83
2019-05-13T12:25:13.767Z,4.03
2019-05-13T12:27:42.450Z,6.30
2019-05-13T12:30:12.490Z,3.90
2019-05-13T12:32:43.701Z,4.42
2019-05-13T12:35:13.370Z,4.97
2019-05-13T12:37:42.123Z,4.55
2019-05-13T12:40:10.628Z,5.50
2019-05-13T12:42:44.309Z,5.28
2019-05-13T12:45:10.966Z,6.25
2019-05-13T12:47:42.661Z,3.60
2019-05-13T12:50:12.781Z,3.40
2019-05-13T12:52:43.224Z,5.72
2019-05-13T12:55:13.756Z,4.40
2019-05-13T12:57:39.660Z,4.00
2019-05-13T13:00:08.135Z,2.60
2019-05-13T13:02:36.328Z,3.52
2019-05-13T13:05:19.732Z,3.95
2019-05-13T13:07:41.216Z,3.47
2019-05-13T13:10:07.153Z,3.92
2019-05-13T13:12:36.415Z,3.77
2019-05-13T13:15:32.012Z,4.47
2019-05-13T13:17:36.112Z,5.05
2019-05-13T13:22:35.716Z,2.52
2019-05-13T13:25:05.244Z,2.37
2019-05-13T13:27:59.911Z,4.08
2019-05-13T13:30:08.553Z,6.03
2019-05-13T13:32:34.654Z,4.37
2019-05-13T13:35:03.893Z,2.90
2019-05-13T13:37:34.971Z,3.35
2019-05-13T13:40:03.428Z,3.72
2019-05-13T13:42:32.934Z,4.70
2019-05-13T13:45:06.025Z,4.28
2019-05-13T13:47:33.233Z,2.92
2019-05-13T13:50:01.365Z,3.10
2019-05-13T13:52:33.203Z,2.85
2019-05-13T13:55:04.510Z,4.55
2019-05-13T13:57:32.407Z,2.55
2019-05-13T14:02:36.560Z,4.08
2019-05-13T14:05:04.932Z,3.35
2019-05-13T14:07:09.337Z,4.25
2019-05-13T14:07:35.922Z,2.27
2019-05-13T14:10:04.168Z,3.58
2019-05-13T14:12:29.516Z,2.93
2019-05-13T14:14:57.680Z,2.37
2019-05-13T14:17:25.862Z,3.35
2019-05-13T14:19:54.079Z,3.65
2019-05-13T14:22:22.300Z,3.15
2019-05-13T14:24:51.807Z,2.75
2019-05-13T14:27:22.255Z,2.70
2019-05-13T14:29:52.511Z,2.50
2019-05-13T14:32:22.286Z,3.20
2019-05-13T14:34:52.784Z,2.15
2019-05-13T14:37:22.314Z,2.23
2019-05-13T14:39:50.367Z,2.60
2019-05-13T14:42:19.450Z,4.28
2019-05-13T14:44:48.561Z,3.72
2019-05-13T14:47:17.284Z,4.42
2019-05-13T14:49:45.410Z,2.85
2019-05-13T14:52:13.649Z,4.22
2019-05-13T14:54:42.138Z,2.92
2019-05-13T14:57:12.614Z,3.45
2019-05-13T14:59:41.463Z,3.22
2019-05-13T15:02:11.917Z,3.05
2019-05-13T15:04:41.843Z,2.27
2019-05-13T15:07:12.075Z,2.98
2019-05-13T15:09:42.095Z,4.37
2019-05-13T15:12:09.765Z,5.73
2019-05-13T15:14:39.998Z,3.92
2019-05-13T15:17:07.938Z,3.35
2019-05-13T15:19:36.032Z,3.00
2019-05-13T15:22:04.483Z,4.17
2019-05-13T15:24:32.693Z,3.40
2019-05-13T15:27:00.935Z,4.10
2019-05-13T15:29:31.401Z,2.77
2019-05-13T15:32:02.070Z,3.65
2019-05-13T15:34:31.811Z,2.42
2019-05-13T15:37:01.989Z,4.78
2019-05-13T15:39:31.596Z,2.85
2019-05-13T15:42:01.983Z,3.75
2019-05-13T15:44:32.426Z,3.27
2019-05-13T15:47:03.852Z,3.15
2019-05-13T15:49:29.346Z,2.02
2019-05-13T15:51:58.204Z,2.67
2019-05-13T15:54:26.308Z,2.20
2019-05-13T15:56:54.565Z,3.07
2019-05-13T15:59:22.646Z,4.03
2019-05-13T16:01:52.485Z,2.37
2019-05-13T16:04:21.391Z,2.50
2019-05-13T16:06:52.124Z,2.35
2019-05-13T16:09:20.467Z,2.55
2019-05-13T16:11:48.702Z,2.77
2019-05-13T16:14:16.788Z,2.85
2019-05-13T16:16:44.887Z,2.10
2019-05-13T16:19:13.094Z,3.15
2019-05-13T16:21:42.701Z,2.17
2019-05-13T16:24:11.924Z,2.40
2019-05-13T16:26:42.742Z,2.10
2019-05-13T16:29:12.669Z,1.72
2019-05-13T16:31:41.705Z,2.30
2019-05-13T16:34:10.044Z,2.30
2019-05-13T16:36:42.798Z,2.05
2019-05-13T16:39:12.110Z,1.72
2019-05-13T16:41:39.484Z,2.65
2019-05-13T16:44:07.598Z,2.00
2019-05-13T16:46:35.746Z,2.27
2019-05-13T16:49:03.934Z,2.08
2019-05-13T16:51:32.057Z,2.45
2019-05-13T16:54:00.184Z,2.87
2019-05-13T16:56:32.110Z,1.70
2019-05-13T16:58:58.212Z,2.85
2019-05-13T17:01:26.365Z,3.03
2019-05-13T17:03:54.576Z,2.40
2019-05-13T17:06:22.771Z,3.02
2019-05-13T17:08:51.642Z,2.75
2019-05-13T17:11:19.941Z,2.60
2019-05-13T17:13:48.129Z,2.25
2019-05-13T17:16:16.225Z,2.22
2019-05-13T17:18:44.485Z,2.02
2019-05-13T17:21:12.574Z,2.58
2019-05-13T17:23:42.024Z,3.30
2019-05-13T17:26:11.587Z,2.58
2019-05-13T17:28:41.737Z,1.85
2019-05-13T17:31:11.544Z,3.25
2019-05-13T17:33:40.025Z,1.92
2019-05-13T17:36:08.276Z,2.63
2019-05-13T17:38:36.472Z,2.80
2019-05-13T17:41:04.724Z,2.30
2019-05-13T17:43:32.928Z,3.47
2019-05-13T17:46:01.440Z,2.85
2019-05-13T17:48:32.524Z,3.55
2019-05-13T17:51:01.330Z,3.00
2019-05-13T17:53:32.394Z,2.60
2019-05-13T17:56:02.156Z,2.95
2019-05-13T17:58:32.366Z,2.15
2019-05-13T18:01:01.926Z,3.53
2019-05-13T18:03:32.111Z,2.17
2019-05-13T18:06:02.496Z,3.60
2019-05-13T19:50:52.835Z,4.35
2019-05-13T19:53:22.101Z,4.77
2019-05-13T19:55:51.956Z,4.22
2019-05-13T19:58:21.642Z,3.45
2019-05-13T20:00:51.590Z,3.83
2019-05-13T20:03:22.565Z,4.27
2019-05-13T20:05:52.990Z,3.67
2019-05-13T20:08:21.266Z,3.42
2019-05-13T20:10:51.336Z,3.67
2019-05-13T20:13:21.649Z,4.33
2019-05-13T20:15:49.192Z,3.08
2019-05-13T20:18:17.399Z,3.60
2019-05-13T20:20:47.141Z,3.40
2019-05-13T20:23:15.397Z,4.90
2019-05-13T20:25:43.618Z,4.73
2019-05-13T20:28:11.918Z,4.25
2019-05-13T20:30:41.841Z,5.35
2019-05-13T20:33:11.957Z,4.08
2019-05-13T20:35:42.093Z,4.12
2019-05-13T20:38:11.566Z,4.20
2019-05-13T20:40:41.449Z,4.35
2019-05-13T20:43:11.855Z,4.58
2019-05-13T20:45:41.949Z,5.37
2019-05-13T20:48:11.771Z,5.20
2019-05-13T20:50:41.252Z,4.22
2019-05-13T20:53:11.370Z,3.90
2019-05-13T20:55:41.500Z,5.15
2019-05-13T20:58:09.085Z,3.80
2019-05-13T21:00:37.237Z,3.95
2019-05-13T21:03:05.394Z,6.25
2019-05-13T21:05:34.326Z,5.25
2019-05-13T21:08:02.572Z,4.03
2019-05-13T21:10:31.492Z,5.47
2019-05-13T21:13:01.750Z,5.47
2019-05-13T21:15:31.743Z,4.87
2019-05-13T21:18:01.941Z,6.85
2019-05-13T21:20:31.945Z,5.40
2019-05-13T21:23:02.111Z,4.90
2019-05-13T21:25:31.108Z,5.37
2019-05-13T21:27:59.454Z,5.20
2019-05-13T21:30:27.608Z,5.08
2019-05-13T21:32:55.888Z,4.77
2019-05-13T21:35:24.108Z,5.15
2019-05-13T21:37:52.298Z,4.80
2019-05-13T21:40:21.693Z,5.20
2019-05-13T21:42:52.437Z,5.17
2019-05-13T21:45:20.058Z,6.67
2019-05-13T21:47:48.240Z,5.72
2019-05-13T21:50:29.520Z,5.87
2019-05-13T21:52:46.490Z,4.47
2019-05-13T21:55:14.694Z,4.90
2019-05-13T21:57:42.915Z,4.80
2019-05-13T22:00:16.323Z,5.60
2019-05-13T22:02:46.121Z,6.72
2019-05-13T22:05:14.498Z,5.78
2019-05-13T22:07:42.775Z,4.97
2019-05-13T22:10:10.925Z,5.25
2019-05-13T22:12:41.277Z,6.22
2019-05-13T22:15:09.153Z,6.40
2019-05-13T22:17:37.369Z,3.70
2019-05-13T22:20:06.519Z,4.30
2019-05-13T22:22:34.704Z,4.90
2019-05-13T22:25:03.320Z,5.72
2019-05-13T22:27:31.899Z,5.75
2019-05-13T22:30:01.432Z,5.87
2019-05-13T22:32:29.711Z,6.47
2019-05-13T22:34:58.706Z,5.73
2019-05-13T22:37:26.983Z,5.42
2019-05-13T22:39:55.249Z,5.10
2019-05-13T22:42:23.422Z,5.45
2019-05-13T22:44:52.234Z,4.97
2019-05-13T22:47:21.980Z,5.90
2019-05-13T22:49:50.294Z,5.80
2019-05-13T22:52:18.502Z,5.73
2019-05-13T22:54:46.627Z,4.28
2019-05-13T22:57:14.786Z,4.62
2019-05-13T22:59:43.087Z,3.98
2019-05-13T23:02:11.303Z,4.33
2019-05-13T23:04:41.698Z,3.55
2019-05-13T23:07:11.604Z,4.87
2019-05-13T23:09:41.382Z,4.83
2019-05-13T23:12:09.112Z,5.10
2019-05-13T23:14:37.277Z,3.70
2019-05-13T23:17:05.505Z,5.20
2019-05-13T23:19:33.707Z,3.07
2019-05-13T23:22:02.462Z,4.17
2019-05-13T23:24:31.156Z,4.62
2019-05-13T23:27:01.912Z,3.90
2019-05-13T23:29:31.910Z,4.78
2019-05-13T23:32:01.453Z,2.83
2019-05-13T23:34:31.773Z,4.25
2019-05-13T23:37:07.833Z,3.85
2019-05-13T23:39:42.384Z,3.80
2019-05-13T23:42:12.243Z,5.12
2019-05-13T23:44:41.403Z,3.85
2019-05-13T23:47:11.517Z,3.90
2019-05-13T23:49:41.863Z,4.92
2019-05-13T23:52:11.659Z,4.10
2019-05-13T23:54:42.177Z,4.10
2019-05-13T23:57:11.712Z,4.33
2019-05-13T23:59:42.048Z,4.43
